Airport View

Enter AWOS ICAO identifier for current METAR.

ex. KFNL

KLIC 191855Z AUTO 35012G20KT 10SM FEW065 23/09 A2996 RMK AO2 SLP083 T02330089

19 Jun 2019 19:12

Frequency: 121.125

Phone: 719-775-0515

Other Area AWOS: KMNH - KFLY - KFTG - KCOS

TAF KCOS 191744Z 1918/2018 30011KT P6SM SCT090 SCT200 FM200300 VRB06KT P6SM FEW090 SCT200